Terminal Aerodrome Forecast
Issued by NWS

Current Version | Previous Version | Graphics & Text | Print | Product List | Glossary On
Versions: 1 2 3 4 5 6 7 8 9 10 11 12 13 14 15 16 17 18 19 20 21 22
000
FTUS41 KPBZ 282300
TAFMGW
TAF
KMGW 282320Z 0100/0124 03004KT P6SM BKN080
     FM010500 09003KT P6SM OVC070
     FM010800 14006KT 2SM -SN OVC015
     FM011600 18006KT 4SM -RA OVC008=

USA.gov is the U.S. government's official web portal to all federal, state and local government web resources and services.